Latest Weather Observations for Bathurst Airport

IDN60801

Issued at 10:32 am EST Wednesday 29 July 2015 (issued every 30 minutes, with the page automatically refreshed every 10 minutes)

About weather observations | Map of weather stations | Latest weather observations for NSW | Other Formats
Station Details ID: 063291 Name: BATHURST AIRPORT AWS Lat: -33.41 Lon: 149.65 Height: 744.5 m
Data from the previous 72 hours. | See also: Recent months for locations in New South Wales
Date/Time
EST
Temp
°C
App
Temp
°C
Dew
Point
Rel
Hum
%
Delta-T
°C
Wind Press
QNH
hPa
Press
MSL
hPa
Rain
since 9 am
mm
Dir
 
Spd
km/h
Gust
km/h
Spd
kts
Gust
kts
29/10:30am 4.7 1.9 3.2 90 0.6 SW 7 11 4 6 1033.9 1035.1 0.0
29/10:00am 3.3 0.9 2.1 92 0.5 WSW 4 7 2 4 1034.3 1035.5 0.0
29/09:30am 2.0 -1.0 1.0 93 0.4 WSW 6 9 3 5 1034.4 1035.6 0.0
29/09:00am 2.1 0.4 2.0 99 0.0 CALM 0 6 0 3 1034.5 1035.7 0.0
29/08:30am -0.4 -3.8 -0.5 99 0.0 S 7 9 4 5 1034.8 1036.0 0.0
29/08:00am -1.3 -4.6 -1.4 99 0.0 SE 6 7 3 4 1034.4 1035.6 0.0
29/07:30am -2.6 -6.3 -2.7 99 -0.1 SE 7 7 4 4 1034.3 1035.5 0.0
29/07:00am -2.5 -4.8 -2.6 99 -0.1 CALM 0 0 0 0 1033.5 1034.6 0.0
29/06:30am -2.6 -4.9 -2.7 99 -0.1 CALM 0 0 0 0 1033.2 1034.4 0.0
29/06:00am -2.5 -4.8 -2.6 99 -0.1 CALM 0 0 0 0 1033.1 1034.3 0.0
29/05:30am -2.4 -4.7 -2.5 99 -0.1 CALM 0 0 0 0 1032.9 1034.1 0.0
29/05:00am -2.3 -4.6 -2.4 99 -0.1 CALM 0 0 0 0 1032.9 1034.1 0.0
29/04:30am -2.0 -5.0 -2.1 99 -0.1 SE 4 7 2 4 1032.9 1034.1 0.0
29/04:00am -1.8 -4.0 -1.9 99 0.0 CALM 0 0 0 0 1032.8 1034.0 0.0
29/03:30am -1.9 -4.2 -2.0 99 -0.1 CALM 0 0 0 0 1032.8 1034.0 0.0
29/03:00am -0.8 -2.9 -0.9 99 0.0 CALM 0 0 0 0 1032.7 1033.9 0.0
29/02:30am -0.3 -2.3 -0.4 99 0.0 CALM 0 0 0 0 1032.8 1034.0 0.0
29/02:00am -0.5 -3.7 -0.6 99 0.0 ENE 6 6 3 3 1032.9 1034.1 0.0
29/01:30am -0.1 -2.1 -0.2 99 0.0 CALM 0 0 0 0 1033.1 1034.3 0.0
29/01:00am 0.6 -2.4 0.5 99 0.0 ENE 6 7 3 4 1033.0 1034.2 0.0
29/12:30am 0.5 -1.4 0.4 99 0.0 CALM 0 0 0 0 1032.9 1034.1 0.0
29/12:00am 1.0 -0.8 0.9 99 0.0 CALM 0 0 0 0 1033.0 1034.2 0.0
 
Date/Time
EST
Temp
°C
App
Temp
°C
Dew
Point
Rel
Hum
%
Delta-T
°C
Wind Press
QNH
hPa
Press
MSL
hPa
Rain
since 9 am
mm
Dir
 
Spd
km/h
Gust
km/h
Spd
kts
Gust
kts
28/11:30pm 0.4 -1.6 -0.3 95 0.3 CALM 0 0 0 0 1033.0 1034.2 0.0
28/11:00pm 0.9 -1.0 0.6 98 0.1 CALM 0 6 0 3 1033.0 1034.2 0.0
28/10:30pm 1.7 -1.2 1.6 99 0.0 NE 6 7 3 4 1033.1 1034.3 0.0
28/10:00pm 1.8 0.0 1.4 97 0.2 CALM 0 0 0 0 1033.0 1034.2 0.0
28/09:30pm 2.9 1.2 1.9 93 0.4 CALM 0 0 0 0 1033.1 1034.3 0.0
28/09:00pm 4.1 1.1 2.3 88 0.7 SSE 7 7 4 4 1032.9 1034.1 0.0
28/08:30pm 3.7 0.7 1.7 87 0.8 SSW 7 7 4 4 1033.1 1034.3 0.0
28/08:00pm 3.9 1.0 1.6 85 0.9 SW 6 9 3 5 1032.9 1034.1 0.0
28/07:30pm 4.1 0.7 1.8 85 1.0 SSW 9 9 5 5 1032.8 1034.0 0.0
28/07:00pm 4.3 0.5 1.8 84 1.0 SSW 11 15 6 8 1032.6 1033.8 0.0
28/06:30pm 5.2 1.1 2.0 80 1.3 SW 13 15 7 8 1032.2 1033.3 0.0
28/06:00pm 6.3 1.8 2.4 76 1.7 SSW 15 20 8 11 1031.7 1032.9 0.0
28/05:30pm 6.6 2.5 2.3 74 1.8 SW 13 15 7 8 1031.3 1032.5 0.0
28/05:00pm 8.3 3.5 2.8 68 2.4 SW 17 20 9 11 1031.0 1032.1 0.0
28/04:30pm 9.7 5.0 3.0 63 3.0 WSW 17 22 9 12 1030.9 1032.0 0.0
28/04:00pm 10.2 6.1 2.3 58 3.5 WSW 13 15 7 8 1030.8 1031.9 0.0
28/03:30pm 10.6 6.4 1.9 55 3.8 WSW 13 17 7 9 1030.9 1032.0 0.0
28/03:00pm 10.3 7.2 1.2 53 3.9 SW 7 13 4 7 1030.9 1032.0 0.0
28/02:30pm 10.4 7.9 1.5 54 3.9 S 4 13 2 7 1030.8 1031.9 0.0
28/02:00pm 9.8 6.3 1.5 56 3.6 SSW 9 17 5 9 1031.1 1032.2 0.0
28/01:30pm 9.8 6.9 1.2 55 3.7 W 6 15 3 8 1031.2 1032.3 0.0
28/01:00pm 8.7 5.8 1.4 60 3.1 SSW 6 15 3 8 1031.7 1032.9 0.0
28/12:30pm 8.5 5.5 1.0 59 3.2 SW 6 9 3 5 1032.3 1033.4 0.0
28/12:00pm 7.9 4.1 1.7 65 2.6 S 11 15 6 8 1032.7 1033.9 0.0
28/11:30am 7.2 3.3 1.3 66 2.5 SW 11 20 6 11 1033.1 1034.3 0.0
28/11:00am 6.5 2.5 0.8 67 2.3 SSW 11 17 6 9 1033.6 1034.8 0.0
28/10:30am 6.3 2.4 1.0 69 2.2 S 11 17 6 9 1033.8 1035.0 0.0
28/10:00am 5.4 1.0 0.6 71 1.9 S 13 22 7 12 1033.9 1035.1 0.0
28/09:30am 4.8 0.0 0.4 73 1.8 S 15 22 8 12 1033.8 1035.0 0.0
28/09:00am 4.6 -0.9 0.9 77 1.5 SSW 19 24 10 13 1033.7 1034.9 0.0
28/08:30am 4.2 -0.1 0.9 79 1.3 SW 13 19 7 10 1033.6 1034.8 0.0
28/08:00am 3.8 0.6 1.0 82 1.1 S 7 9 4 5 1033.4 1034.5 0.0
28/07:30am 3.5 -0.1 0.7 82 1.1 SSW 9 20 5 11 1032.9 1034.1 0.0
28/07:00am 3.5 -0.8 0.7 82 1.1 S 13 17 7 9 1032.8 1034.0 0.0
28/06:30am 3.2 -0.3 1.1 86 0.8 SSW 9 13 5 7 1032.4 1033.5 0.0
28/06:00am 3.0 0.7 0.6 84 0.9 S 2 6 1 3 1032.1 1033.2 0.0
28/05:30am 3.1 -0.1 0.5 83 1.0 S 7 9 4 5 1031.9 1033.0 0.0
28/05:00am 2.6 0.7 0.3 85 0.9 CALM 0 0 0 0 1031.3 1032.5 0.0
28/04:30am 2.8 0.0 -0.1 81 1.1 S 4 7 2 4 1031.2 1032.3 0.0
28/04:00am 3.1 -0.6 0.2 81 1.1 SSW 9 11 5 6 1031.0 1032.1 0.0
28/03:30am 3.5 -0.6 0.0 78 1.4 SSW 11 15 6 8 1031.2 1032.3 0.0
28/03:00am 2.6 -1.2 -0.5 80 1.2 SSW 9 9 5 5 1030.9 1032.0 0.0
28/02:30am 3.3 -0.4 -0.2 78 1.4 SW 9 11 5 6 1030.9 1032.0 0.0
28/02:00am 3.6 0.3 0.0 77 1.4 SSW 7 11 4 6 1030.9 1032.0 0.0
28/01:30am 3.7 -0.4 -0.5 74 1.6 SSW 11 13 6 7 1030.8 1031.9 0.0
28/01:00am 3.8 -2.1 -0.8 72 1.8 SSW 20 28 11 15 1030.9 1032.0 0.0
28/12:30am 3.8 -1.9 -0.4 74 1.6 SSW 19 20 10 11 1031.0 1032.1 0.0
28/12:00am 3.8 -2.4 -0.4 74 1.6 SSW 22 30 12 16 1031.0 1032.1 0.0
 
Date/Time
EST
Temp
°C
App
Temp
°C
Dew
Point
Rel
Hum
%
Delta-T
°C
Wind Press
QNH
hPa
Press
MSL
hPa
Rain
since 9 am
mm
Dir
 
Spd
km/h
Gust
km/h
Spd
kts
Gust
kts
27/11:30pm 4.0 -1.6 0.0 75 1.6 SSW 19 26 10 14 1030.9 1032.0 0.0
27/11:00pm 4.0 -1.6 0.2 76 1.5 SSW 19 22 10 12 1030.8 1031.9 0.0
27/10:30pm 4.1 -2.0 0.1 75 1.6 SSW 22 30 12 16 1030.8 1031.9 0.0
27/10:00pm 4.2 -1.6 0.2 75 1.6 SW 20 26 11 14 1030.5 1031.6 0.0
27/09:30pm 4.1 -2.0 0.1 75 1.6 SSW 22 30 12 16 1030.3 1031.5 0.0
27/09:00pm 4.0 -1.2 0.0 75 1.6 SSW 17 22 9 12 1030.1 1031.2 0.0
27/08:30pm 4.0 -1.8 0.2 76 1.5 SSW 20 24 11 13 1030.0 1031.1 0.0
27/08:00pm 3.8 -0.4 1.4 84 1.0 SW 13 17 7 9 1030.0 1031.1 0.0
27/07:30pm 3.7 -0.6 1.1 83 1.1 SW 13 17 7 9 1029.8 1030.9 0.0
27/07:00pm 3.8 -0.1 1.2 83 1.0 SW 11 15 6 8 1029.5 1030.6 0.0
27/06:30pm 3.9 -0.8 1.1 82 1.1 WSW 15 20 8 11 1029.2 1030.3 0.0
27/06:00pm 3.9 -1.2 0.6 79 1.3 SW 17 20 9 11 1029.0 1030.0 0.0
27/05:30pm 4.0 -1.2 0.2 76 1.5 SW 17 20 9 11 1028.5 1029.6 0.0
27/05:00pm 4.1 -1.7 0.1 75 1.6 SW 20 26 11 14 1028.1 1029.2 0.0
27/04:30pm 4.6 -1.2 -0.2 71 1.9 WSW 20 26 11 14 1027.7 1028.7 0.0
27/04:00pm 4.7 -1.9 -0.3 70 2.0 WSW 24 32 13 17 1027.7 1028.7 0.0
27/03:30pm 4.9 -1.7 -0.3 69 2.1 WSW 24 30 13 16 1027.3 1028.4 0.0
27/03:00pm 5.3 -1.7 -0.7 65 2.3 SW 26 33 14 18 1027.1 1028.2 0.0
27/02:30pm 5.5 -1.2 -0.8 64 2.5 WSW 24 30 13 16 1027.0 1028.1 0.0
27/02:00pm 5.5 -1.6 -1.6 60 2.7 WSW 26 33 14 18 1026.7 1027.7 0.0
27/01:30pm 5.3 -2.2 -1.2 63 2.5 WSW 28 37 15 20 1026.9 1028.0 0.0
27/01:00pm 5.3 -2.5 -0.9 64 2.4 WSW 30 39 16 21 1026.9 1028.0 0.0
27/12:30pm 5.4 -2.4 -1.1 63 2.5 WSW 30 37 16 20 1027.1 1028.2 0.0
27/12:00pm 5.4 -3.0 -1.3 62 2.6 WSW 33 41 18 22 1027.3 1028.4 0.0
27/11:30am 5.4 -1.2 -0.6 65 2.4 SW 24 32 13 17 1027.3 1028.4 0.0
27/11:00am 5.0 -1.3 -0.8 66 2.3 SW 22 32 12 17 1027.4 1028.5 0.0
27/10:30am 4.6 -1.1 -0.4 70 2.0 SW 19 28 10 15 1027.4 1028.5 0.0
27/10:00am 3.4 -2.6 -1.2 72 1.7 SW 20 28 11 15 1027.3 1028.4 0.0
27/09:30am 3.5 -3.1 -0.1 77 1.4 SW 24 30 13 16 1027.2 1028.3 0.0
27/09:23am 2.8 -3.4 -0.6 78 1.3 SW 22 30 12 16 1027.2 1028.3 0.0
27/09:00am 2.8 -2.8 -0.1 81 1.1 SW 19 26 10 14 1026.9 1028.0 0.2
27/08:30am 2.2 -3.1 -0.4 83 1.0 SW 17 22 9 12 1026.5 1027.5 0.2
27/08:00am 2.0 -3.2 0.1 87 0.7 WSW 17 20 9 11 1026.1 1027.1 0.2
27/07:30am 1.3 -3.6 -0.2 90 0.6 WSW 15 22 8 12 1025.5 1026.5 0.2
27/07:13am 1.1 -4.2 -0.8 87 0.7 WSW 17 24 9 13 1025.4 1026.4 0.2
27/07:00am 1.3 -3.6 -0.6 87 0.7 WSW 15 20 8 11 1025.4 1026.4 0.2
27/06:30am 1.6 -4.1 -0.5 86 0.8 WSW 19 24 10 13 1025.0 1026.0 0.2
27/06:00am 1.8 -4.4 0.0 88 0.7 WSW 22 30 12 16 1024.5 1025.6 0.2
27/05:59am 1.9 -4.3 0.0 87 0.7 WSW 22 30 12 16 1024.5 1025.6 0.2
27/05:30am 2.0 -3.5 0.4 89 0.6 WSW 19 22 10 12 1024.3 1025.3 0.2
27/05:23am 2.1 -3.6 0.5 89 0.6 WSW 20 26 11 14 1024.2 1025.2 0.2
27/05:00am 2.3 -3.2 0.4 87 0.7 WSW 19 26 10 14 1024.0 1025.0 0.2
27/04:30am 2.0 -2.4 0.4 89 0.6 SW 13 20 7 11 1023.8 1024.8 0.2
27/04:00am 1.7 -3.1 0.5 92 0.5 SW 15 20 8 11 1023.7 1024.7 0.2
27/03:30am 1.3 -3.5 0.0 91 0.5 SW 15 19 8 10 1023.7 1024.7 0.2
27/03:00am 2.1 -3.4 0.3 88 0.7 WSW 19 28 10 15 1023.3 1024.2 0.2
27/02:30am 2.2 -3.9 0.3 87 0.7 WSW 22 28 12 15 1023.1 1024.1 0.2
27/02:00am 2.7 -3.0 0.6 86 0.8 SW 20 28 11 15 1023.1 1024.1 0.2
27/01:30am 2.7 -2.8 0.9 88 0.7 WSW 19 22 10 12 1023.3 1024.2 0.2
27/01:00am 3.0 -2.7 0.7 85 0.9 WSW 20 28 11 15 1023.5 1024.5 0.2
27/12:30am 3.1 -2.6 0.8 85 0.9 WSW 20 28 11 15 1023.4 1024.4 0.2
27/12:00am 3.5 -1.1 1.4 86 0.9 WSW 15 20 8 11 1023.5 1024.5 0.2
 
Date/Time
EST
Temp
°C
App
Temp
°C
Dew
Point
Rel
Hum
%
Delta-T
°C
Wind Press
QNH
hPa
Press
MSL
hPa
Rain
since 9 am
mm
Dir
 
Spd
km/h
Gust
km/h
Spd
kts
Gust
kts
26/11:30pm 3.6 -1.4 1.2 84 1.0 WSW 17 26 9 14 1023.5 1024.5 0.2
26/11:00pm 3.0 -0.5 1.1 87 0.8 W 9 13 5 7 1023.4 1024.4 0.2
26/10:30pm 3.4 -0.6 0.6 82 1.1 W 11 17 6 9 1023.4 1024.4 0.2
26/10:00pm 4.2 -0.8 1.6 83 1.1 WSW 17 24 9 13 1023.1 1024.1 0.2
26/09:30pm 4.1 -1.5 1.5 83 1.1 WSW 20 28 11 15 1022.9 1023.9 0.2
26/09:00pm 4.7 -0.2 2.2 84 1.0 W 17 24 9 13 1022.9 1023.9 0.2
26/08:30pm 4.7 -0.2 1.7 81 1.2 W 17 24 9 13 1022.6 1023.6 0.2
26/08:00pm 4.7 -1.5 1.9 82 1.2 W 24 33 13 18 1022.5 1023.5 0.2
26/07:57pm 4.8 -1.4 2.0 82 1.2 WSW 24 32 13 17 1022.5 1023.5 0.2
26/07:30pm 4.8 -1.2 3.3 90 0.6 SW 24 32 13 17 1022.0 1022.9 0.2
26/07:00pm 5.2 -1.8 4.3 94 0.4 WSW 30 44 16 24 1021.3 1022.3 0.2
26/06:30pm 6.2 0.6 5.3 94 0.4 WSW 24 35 13 19 1020.5 1021.4 0.2
26/06:04pm 6.3 1.6 5.1 92 0.6 W 19 24 10 13 1019.7 1020.6 0.2
26/06:00pm 6.3 2.0 5.1 92 0.5 W 17 24 9 13 1019.5 1020.4 0.2
26/05:30pm 6.4 1.1 5.0 91 0.6 W 22 32 12 17 1019.2 1020.1 0.2
26/05:26pm 6.4 1.1 5.2 92 0.6 W 22 32 12 17 1019.1 1020.0 0.2
26/05:00pm 6.7 1.1 5.3 91 0.6 W 24 35 13 19 1018.9 1019.8 0.2
26/04:30pm 7.5 3.1 7.2 98 0.1 W 20 30 11 16 1018.2 1019.1 0.2
26/04:24pm 7.6 2.8 7.2 97 0.2 W 22 30 12 16 1018.1 1019.0 0.0
26/04:00pm 8.9 3.4 5.8 81 1.5 W 24 33 13 18 1018.0 1018.9 0.0
26/03:30pm 10.8 3.5 4.3 64 3.0 WNW 32 43 17 23 1017.7 1018.6 0.0
26/03:00pm 10.9 3.3 4.1 63 3.2 WNW 33 41 18 22 1017.3 1018.2 0.0
26/02:30pm 10.9 5.1 4.4 64 3.0 WNW 24 37 13 20 1017.2 1018.1 0.0
26/02:00pm 10.9 4.0 4.4 64 3.0 NW 30 41 16 22 1017.3 1018.2 0.0
26/01:30pm 11.2 4.4 4.9 65 3.0 WNW 30 39 16 21 1017.3 1018.2 0.0
26/01:00pm 10.4 4.3 4.8 68 2.6 WNW 26 35 14 19 1017.7 1018.6 0.0
26/12:30pm 10.9 3.6 4.4 64 3.0 WNW 32 43 17 23 1018.1 1019.0 0.0
26/12:13pm 10.6 3.5 5.4 70 2.5 WNW 32 50 17 27 1018.5 1019.4 0.0
26/12:00pm 10.0 2.5 4.6 69 2.5 WNW 33 43 18 23 1018.7 1019.7 0.0
26/11:30am 10.9 3.2 5.4 69 2.6 WNW 35 44 19 24 1019.1 1020.0 0.0
26/11:00am 11.6 4.6 6.1 69 2.7 NW 32 39 17 21 1019.0 1019.9 0.0

Other Formats:

Comma delimited format used in spreadsheet applications
http://www.bom.gov.au/fwo/IDN60801/IDN60801.94729.axf

JavaScript Object Notation format (JSON) in row-major order
http://www.bom.gov.au/fwo/IDN60801/IDN60801.94729.json